Time;durP1;ratioP1;P1;durP2;ratioP2;P2;SDS_P1;SDS_P2;PMS_P1;PMS_P2;Temp;Humidity;BMP_temperature;BMP_pressure;BME280_temperature;BME280_humidity;BME280_pressure;Samples;Min_cycle;Max_cycle;Signal;HPM_P1;HPM_P2
2022/08/06 00:01:09;;;;;;;2.17;0.80;;;;;;;13.98;69.18;101582.97;5029515;28;20202;-71
2022/08/06 00:03:35;;;;;;;2.07;0.67;;;;;;;13.99;69.15;101586.53;5026896;28;20703;-70
2022/08/06 00:06:02;;;;;;;0.90;0.60;;;;;;;13.97;69.05;101592.00;5025626;28;20222;-71
2022/08/06 00:08:29;;;;;;;1.77;0.80;;;;;;;13.94;69.17;101589.50;5028739;28;20532;-71
2022/08/06 00:10:55;;;;;;;1.10;0.70;;;;;;;13.89;69.37;101603.19;5023260;28;20600;-71
2022/08/06 00:13:23;;;;;;;1.17;0.67;;;;;;;13.84;68.66;101602.59;5024379;28;20202;-71
2022/08/06 00:15:49;;;;;;;2.07;0.93;;;;;;;13.81;69.10;101605.44;5027848;28;20593;-70
2022/08/06 00:18:16;;;;;;;0.97;0.70;;;;;;;13.78;68.75;101605.66;5021689;28;20217;-69
2022/08/06 00:20:43;;;;;;;1.77;0.73;;;;;;;13.74;68.45;101609.47;5027471;28;20226;-71
2022/08/06 00:23:10;;;;;;;2.33;0.90;;;;;;;13.72;68.40;101605.19;5026970;28;20199;-70
2022/08/06 00:25:37;;;;;;;3.90;1.30;;;;;;;13.69;68.38;101606.22;5026910;28;20312;-70
2022/08/06 00:28:04;;;;;;;1.20;1.00;;;;;;;13.69;68.58;101608.03;5029026;28;20210;-70
2022/08/06 00:30:32;;;;;;;2.10;0.70;;;;;;;13.69;68.58;101608.91;5028741;28;20671;-70
2022/08/06 00:32:58;;;;;;;3.03;1.10;;;;;;;13.69;68.28;101608.91;5033510;28;20238;-71
2022/08/06 00:35:24;;;;;;;1.63;0.80;;;;;;;13.70;68.43;101613.28;5030966;28;20213;-71
2022/08/06 00:37:51;;;;;;;0.77;0.73;;;;;;;13.72;68.50;101613.22;5031073;28;20213;-70
2022/08/06 00:40:19;;;;;;;1.23;0.70;;;;;;;13.74;68.33;101617.50;5033594;28;20211;-71
2022/08/06 00:42:46;;;;;;;1.50;0.80;;;;;;;13.73;68.07;101614.94;5031738;28;20209;-71
2022/08/06 00:45:12;;;;;;;2.27;0.70;;;;;;;13.72;67.58;101619.41;5029165;28;20469;-71
2022/08/06 00:47:40;;;;;;;2.43;0.90;;;;;;;13.69;67.53;101624.09;5025104;28;20263;-71
2022/08/06 00:50:07;;;;;;;6.00;1.10;;;;;;;13.59;66.97;101623.81;5025648;28;20210;-71
2022/08/06 00:52:34;;;;;;;1.93;0.87;;;;;;;13.49;67.01;101631.50;5031510;28;20225;-71
2022/08/06 00:55:00;;;;;;;2.43;1.00;;;;;;;13.39;67.26;101638.38;5028593;28;20755;-72
2022/08/06 00:57:27;;;;;;;0.90;0.90;;;;;;;13.34;67.90;101636.91;5031014;28;20226;-71
2022/08/06 00:59:53;;;;;;;1.83;1.17;;;;;;;13.29;68.44;101636.31;5024925;28;20213;-72
2022/08/06 01:02:20;;;;;;;2.30;1.20;;;;;;;13.26;68.35;101632.00;5030568;28;20229;-69
2022/08/06 01:04:48;;;;;;;2.20;1.00;;;;;;;13.20;69.06;101638.59;5030856;28;20217;-69
2022/08/06 01:07:14;;;;;;;1.70;1.00;;;;;;;13.19;69.30;101636.00;5037535;28;20225;-70
2022/08/06 01:09:41;;;;;;;2.00;1.10;;;;;;;13.14;69.31;101641.59;5039612;28;20453;-69
2022/08/06 01:12:07;;;;;;;1.30;1.00;;;;;;;13.12;69.30;101639.94;5034122;28;20213;-70
2022/08/06 01:14:34;;;;;;;1.57;1.03;;;;;;;13.09;70.00;101645.47;5036266;28;20202;-69
2022/08/06 01:17:08;;;;;;;2.70;1.00;;;;;;;13.05;69.98;101643.94;5032866;28;20237;-69
2022/08/06 01:19:49;;;;;;;0.70;0.70;;;;;;;13.01;70.40;101648.59;5031435;28;20205;-69
2022/08/06 01:22:33;;;;;;;2.67;0.90;;;;;;;13.01;70.23;101642.41;5035254;28;20729;-69
2022/08/06 01:25:21;;;;;;;1.57;1.00;;;;;;;12.98;70.17;101642.56;5031970;28;20207;-70
2022/08/06 01:27:52;;;;;;;1.23;0.80;;;;;;;12.93;70.72;101645.50;5013661;28;20216;-69
2022/08/06 01:30:21;;;;;;;1.20;0.90;;;;;;;12.90;70.86;101645.66;5029197;28;20206;-69
2022/08/06 01:32:53;;;;;;;3.03;1.20;;;;;;;12.91;71.15;101646.53;5029836;28;20686;-70
2022/08/06 01:35:27;;;;;;;1.97;0.93;;;;;;;12.90;71.54;101642.16;5030749;28;20212;-69
2022/08/06 01:37:59;;;;;;;2.50;0.73;;;;;;;12.90;71.77;101645.66;5031474;28;20202;-70
2022/08/06 01:40:29;;;;;;;0.90;0.80;;;;;;;12.91;71.57;101639.38;5029301;28;20217;-70
2022/08/06 01:42:58;;;;;;;0.97;0.83;;;;;;;12.91;71.71;101646.53;5030135;28;20238;-70
2022/08/06 01:45:28;;;;;;;1.17;0.90;;;;;;;12.87;71.46;101656.56;5032569;28;20206;-71
2022/08/06 01:47:59;;;;;;;1.43;0.70;;;;;;;12.82;71.22;101655.94;5024879;28;20212;-70
2022/08/06 01:50:30;;;;;;;1.00;0.70;;;;;;;12.78;71.36;101652.59;5030249;28;20676;-70
2022/08/06 01:52:59;;;;;;;1.53;0.63;;;;;;;12.78;71.83;101651.72;5027656;28;20211;-71
2022/08/06 01:55:28;;;;;;;3.93;0.87;;;;;;;12.77;72.10;101658.00;5031328;28;20211;-71
2022/08/06 01:58:00;;;;;;;0.80;0.70;;;;;;;12.77;72.15;101656.22;5030435;28;20205;-70
2022/08/06 02:00:27;;;;;;;2.70;0.70;;;;;;;12.80;72.40;101656.03;5025089;28;20335;-71
2022/08/06 02:02:56;;;;;;;1.13;0.70;;;;;;;12.83;72.50;101649.66;5029659;28;20222;-71
2022/08/06 02:05:32;;;;;;;1.90;0.80;;;;;;;12.83;72.48;101642.50;5022789;28;20595;-71
2022/08/06 02:08:01;;;;;;;2.37;0.80;;;;;;;12.85;72.77;101642.41;5028837;28;20218;-71
2022/08/06 02:10:31;;;;;;;1.80;0.90;;;;;;;12.86;72.65;101644.16;5032829;28;20213;-69
2022/08/06 02:13:02;;;;;;;0.80;0.77;;;;;;;12.86;72.87;101644.16;5031139;28;20207;-70
2022/08/06 02:15:29;;;;;;;2.83;1.10;;;;;;;12.87;72.57;101643.19;5032534;28;20199;-71
2022/08/06 02:18:01;;;;;;;2.73;0.93;;;;;;;12.89;72.38;101645.78;5027398;28;20202;-70
2022/08/06 02:20:30;;;;;;;1.07;0.70;;;;;;;12.88;72.33;101639.56;5029503;28;20206;-70
2022/08/06 02:22:59;;;;;;;0.80;0.70;;;;;;;12.89;72.33;101640.44;5029231;28;20240;-71
2022/08/06 02:25:26;;;;;;;3.50;0.83;;;;;;;12.87;72.58;101645.88;5030980;28;20205;-69
2022/08/06 02:27:55;;;;;;;0.90;0.80;;;;;;;12.85;72.25;101645.94;5028294;28;20213;-70
2022/08/06 02:30:25;;;;;;;0.90;0.80;;;;;;;12.84;72.26;101652.25;5029199;28;20213;-70
2022/08/06 02:32:51;;;;;;;1.83;0.70;;;;;;;12.83;72.69;101655.88;5028447;28;20223;-70
2022/08/06 02:35:18;;;;;;;1.10;0.70;;;;;;;12.82;72.61;101656.81;5026993;28;20202;-70
2022/08/06 02:37:50;;;;;;;1.50;0.87;;;;;;;12.83;72.67;101661.22;5028318;28;20493;-69
2022/08/06 02:40:22;;;;;;;4.10;0.80;;;;;;;12.82;72.74;101664.84;5026977;28;20373;-70
2022/08/06 02:42:53;;;;;;;1.40;0.77;;;;;;;12.81;72.64;101673.81;5029050;28;20327;-70
2022/08/06 02:45:26;;;;;;;1.07;0.67;;;;;;;12.80;72.76;101671.22;5029430;28;20207;-70
2022/08/06 02:48:02;;;;;;;1.93;0.80;;;;;;;12.79;73.03;101673.03;5027223;28;20206;-69
2022/08/06 02:50:32;;;;;;;2.50;0.80;;;;;;;12.80;73.20;101681.91;5027977;28;20548;-70
2022/08/06 02:53:03;;;;;;;1.90;1.10;;;;;;;12.79;73.04;101673.03;5026903;28;20213;-70
2022/08/06 02:55:33;;;;;;;1.27;0.83;;;;;;;12.79;73.30;101675.69;5028125;28;20206;-70
2022/08/06 02:58:08;;;;;;;1.07;0.90;;;;;;;12.78;73.26;101675.78;5021833;28;20199;-69
2022/08/06 03:00:41;;;;;;;1.17;0.80;;;;;;;12.74;72.67;101679.56;5027890;28;20205;-70
2022/08/06 03:03:08;;;;;;;1.20;0.80;;;;;;;12.68;72.60;101685.28;5028821;28;20237;-70
2022/08/06 03:05:36;;;;;;;1.87;0.97;;;;;;;12.62;72.37;101686.47;5029225;28;20229;-70
2022/08/06 03:08:06;;;;;;;3.83;0.83;;;;;;;12.53;72.36;101689.66;5029008;28;20214;-70
2022/08/06 03:10:35;;;;;;;2.40;1.03;;;;;;;12.42;71.95;101698.25;5028468;28;20204;-70
2022/08/06 03:13:04;;;;;;;1.70;0.80;;;;;;;12.31;72.07;101700.66;5027853;28;20209;-70
2022/08/06 03:15:32;;;;;;;2.37;0.90;;;;;;;12.21;72.21;101702.06;5028693;28;20667;-70
2022/08/06 03:18:02;;;;;;;2.00;0.80;;;;;;;12.13;72.77;101701.63;5024344;28;20835;-70
2022/08/06 03:20:30;;;;;;;0.93;0.70;;;;;;;12.06;73.17;101701.09;5029980;28;20290;-70
2022/08/06 03:22:59;;;;;;;1.80;0.90;;;;;;;12.04;73.40;101708.31;5025845;28;20230;-69
2022/08/06 03:25:28;;;;;;;0.90;0.80;;;;;;;12.02;73.87;101712.00;5031580;28;20212;-70
2022/08/06 03:27:56;;;;;;;2.07;1.03;;;;;;;12.01;74.05;101719.16;5028019;28;20605;-70
2022/08/06 03:30:24;;;;;;;1.73;1.00;;;;;;;12.03;74.31;101713.72;5026405;28;20204;-70
2022/08/06 03:32:52;;;;;;;1.50;0.90;;;;;;;12.02;74.50;101715.53;5026265;28;20215;-68
2022/08/06 03:35:20;;;;;;;1.90;0.90;;;;;;;12.04;74.93;101713.66;5025994;28;20209;-70
2022/08/06 03:37:49;;;;;;;2.10;1.20;;;;;;;12.05;75.04;101722.53;5028596;28;20601;-70
2022/08/06 03:40:19;;;;;;;0.93;0.70;;;;;;;12.04;74.94;101724.31;5027093;28;20209;-69
2022/08/06 03:42:46;;;;;;;1.83;1.10;;;;;;;12.02;74.96;101720.88;5028291;28;20719;-70
2022/08/06 03:45:13;;;;;;;1.10;1.00;;;;;;;12.01;74.88;101728.97;5028381;28;20572;-70
2022/08/06 03:47:44;;;;;;;1.47;0.87;;;;;;;11.98;75.22;101739.81;5026648;28;20301;-70
2022/08/06 03:50:12;;;;;;;1.40;0.60;;;;;;;11.95;74.86;101738.16;5028508;28;20268;-70
2022/08/06 03:52:45;;;;;;;1.83;1.07;;;;;;;11.87;74.54;101740.34;5027429;28;20202;-69
2022/08/06 03:55:16;;;;;;;0.67;0.67;;;;;;;11.77;74.40;101736.44;5030725;28;20207;-70
2022/08/06 03:57:46;;;;;;;1.63;0.60;;;;;;;11.68;74.78;101742.19;5025162;28;20206;-69
2022/08/06 04:00:15;;;;;;;1.13;0.70;;;;;;;11.62;75.13;101740.72;5022444;28;20681;-70
2022/08/06 04:02:45;;;;;;;0.73;0.73;;;;;;;11.58;75.31;101736.47;5027741;28;20219;-70
2022/08/06 04:05:15;;;;;;;1.73;0.60;;;;;;;11.56;75.60;101738.34;5027595;28;20213;-69
2022/08/06 04:07:44;;;;;;;1.23;0.70;;;;;;;11.56;75.71;101737.50;5027204;28;20235;-70
2022/08/06 04:10:12;;;;;;;0.90;0.60;;;;;;;11.54;75.99;101742.03;5028552;28;20206;-70
2022/08/06 04:12:39;;;;;;;1.90;0.60;;;;;;;11.53;76.11;101746.50;5028086;28;20216;-69
2022/08/06 04:15:07;;;;;;;1.23;0.73;;;;;;;11.48;75.37;101754.72;5026357;28;20210;-70
2022/08/06 04:17:35;;;;;;;1.80;0.70;;;;;;;11.43;76.09;101772.78;5025713;28;20222;-69
2022/08/06 04:20:02;;;;;;;1.80;0.87;;;;;;;11.41;76.62;101764.00;5028195;28;20232;-69
2022/08/06 04:22:29;;;;;;;1.37;1.07;;;;;;;11.41;76.86;101771.13;5027710;28;20310;-70
2022/08/06 04:24:57;;;;;;;3.73;0.90;;;;;;;11.41;77.10;101773.81;5026069;28;20202;-70
2022/08/06 04:27:24;;;;;;;2.63;0.83;;;;;;;11.43;77.54;101778.13;5018257;28;20223;-69
2022/08/06 04:29:54;;;;;;;2.10;0.83;;;;;;;11.44;77.76;101779.00;5024294;28;20214;-69
2022/08/06 04:32:23;;;;;;;2.23;1.10;;;;;;;11.46;77.82;101777.94;5027066;28;20207;-70
2022/08/06 04:34:51;;;;;;;2.23;0.90;;;;;;;11.48;78.24;101786.75;5028631;28;20669;-69
2022/08/06 04:37:20;;;;;;;3.10;1.03;;;;;;;11.50;78.58;101792.00;5025596;28;20247;-70
2022/08/06 04:39:47;;;;;;;1.67;0.90;;;;;;;11.50;78.85;101794.69;5026547;28;20207;-70
2022/08/06 04:42:16;;;;;;;1.10;0.60;;;;;;;11.52;79.06;101799.94;5029469;28;21923;-70
2022/08/06 04:44:43;;;;;;;3.00;1.00;;;;;;;11.51;79.29;101796.41;5034282;28;20439;-70
2022/08/06 04:47:11;;;;;;;2.27;0.70;;;;;;;11.52;79.66;101800.81;5027648;28;20637;-70
2022/08/06 04:49:37;;;;;;;1.10;1.00;;;;;;;11.53;79.82;101802.53;5026387;28;20670;-70
2022/08/06 04:52:04;;;;;;;3.03;0.83;;;;;;;11.56;80.27;101813.06;5036284;28;20200;-70
2022/08/06 04:54:31;;;;;;;1.97;1.10;;;;;;;11.58;80.59;101805.84;5023371;28;20216;-70
2022/08/06 04:56:57;;;;;;;2.43;1.13;;;;;;;11.61;81.00;101813.72;5026860;28;20241;-69
2022/08/06 04:59:25;;;;;;;1.17;1.07;;;;;;;11.68;81.58;101816.91;5026543;28;20236;-69
2022/08/06 05:01:52;;;;;;;1.50;1.10;;;;;;;11.74;81.72;101813.97;5032152;28;20208;-70
2022/08/06 05:04:18;;;;;;;3.47;1.17;;;;;;;11.79;82.06;101820.84;5033734;28;20313;-69
2022/08/06 05:06:50;;;;;;;2.13;0.90;;;;;;;11.87;82.09;101824.91;5031921;28;20228;-70
2022/08/06 05:09:21;;;;;;;2.37;1.00;;;;;;;11.95;82.13;101822.75;5030033;28;20239;-69
2022/08/06 05:11:52;;;;;;;2.00;1.10;;;;;;;12.00;81.92;101826.06;5028187;28;20500;-69
2022/08/06 05:14:30;;;;;;;1.70;0.90;;;;;;;12.05;81.97;101824.84;5027232;28;20653;-70
2022/08/06 05:17:02;;;;;;;1.67;0.90;;;;;;;12.12;81.60;101833.44;5023565;28;20254;-69
2022/08/06 05:19:35;;;;;;;2.57;1.10;;;;;;;12.20;81.45;101835.69;5029989;28;20211;-70
2022/08/06 05:22:03;;;;;;;1.90;0.87;;;;;;;12.26;81.08;101836.25;5030747;28;20690;-70
2022/08/06 05:24:30;;;;;;;1.80;0.90;;;;;;;12.33;81.30;101834.13;5029553;28;20198;-69
2022/08/06 05:26:57;;;;;;;2.10;0.90;;;;;;;12.39;81.18;101842.69;5032191;28;20563;-70
2022/08/06 05:29:23;;;;;;;3.03;1.00;;;;;;;12.47;80.70;101836.94;5032217;28;20656;-69
2022/08/06 05:31:50;;;;;;;3.17;0.90;;;;;;;12.53;80.45;101844.66;5031283;28;20674;-70
2022/08/06 05:34:18;;;;;;;3.83;1.00;;;;;;;12.62;80.09;101848.63;5029505;28;20293;-70
2022/08/06 05:36:44;;;;;;;2.57;0.80;;;;;;;12.69;79.58;101852.72;5046612;22;20245;-82
2022/08/06 05:39:11;;;;;;;0.93;0.83;;;;;;;12.78;79.52;101854.88;5052437;28;20213;-81
2022/08/06 05:41:37;;;;;;;3.50;1.30;;;;;;;12.86;79.02;101844.66;5053903;28;20205;-82
2022/08/06 05:44:04;;;;;;;0.93;0.77;;;;;;;12.95;78.68;101851.31;5048610;28;20221;-81
2022/08/06 05:46:34;;;;;;;1.30;0.83;;;;;;;13.04;78.29;101859.72;5052653;28;20669;-81
2022/08/06 05:49:05;;;;;;;3.50;1.10;;;;;;;13.14;77.87;101854.72;5047580;28;20221;-81
2022/08/06 05:51:38;;;;;;;4.93;1.00;;;;;;;13.25;77.62;101860.38;5049931;28;20210;-81
2022/08/06 05:54:11;;;;;;;1.13;0.87;;;;;;;13.36;77.54;101859.78;5055351;28;20682;-82
2022/08/06 05:56:43;;;;;;;1.13;1.00;;;;;;;13.48;77.44;101859.06;5054515;28;20209;-82
2022/08/06 05:59:16;;;;;;;1.33;0.70;;;;;;;13.60;76.77;101866.44;5055513;28;20190;-81
2022/08/06 06:01:43;;;;;;;1.80;0.90;;;;;;;13.69;76.06;101865.91;5053238;28;20655;-81
2022/08/06 06:04:10;;;;;;;1.83;0.90;;;;;;;13.80;75.69;101865.28;5055098;28;20312;-82
2022/08/06 06:06:39;;;;;;;3.90;0.87;;;;;;;13.88;74.84;101871.94;5050089;28;20202;-82
2022/08/06 06:09:06;;;;;;;2.23;1.13;;;;;;;14.01;74.85;101871.22;5058311;28;20224;-82
2022/08/06 06:11:34;;;;;;;3.00;1.00;;;;;;;14.12;74.34;101869.66;5056107;28;20242;-82
2022/08/06 06:14:00;;;;;;;2.80;0.90;;;;;;;14.23;74.11;101867.19;5058695;28;20209;-81
2022/08/06 06:16:30;;;;;;;1.10;0.80;;;;;;;14.37;73.73;101873.53;5054418;28;20225;-81
2022/08/06 06:19:11;;;;;;;1.97;0.90;;;;;;;14.49;73.39;101876.41;5050088;28;20666;-82
2022/08/06 06:21:48;;;;;;;1.90;0.90;;;;;;;14.62;73.19;101876.50;5057434;28;20241;-82
2022/08/06 06:24:21;;;;;;;2.37;1.10;;;;;;;14.76;72.79;101881.03;5055787;28;20244;-82
2022/08/06 06:26:53;;;;;;;1.33;0.90;;;;;;;14.86;72.23;101883.06;5058272;28;20724;-82
2022/08/06 06:29:34;;;;;;;1.10;0.80;;;;;;;14.98;72.05;101876.06;5059216;28;20201;-82
2022/08/06 06:32:09;;;;;;;1.27;1.03;;;;;;;15.10;71.21;101883.34;5054137;28;20221;-82
2022/08/06 06:34:47;;;;;;;3.47;1.10;;;;;;;15.21;70.83;101882.69;5061525;28;20205;-82
2022/08/06 06:37:23;;;;;;;1.10;0.93;;;;;;;15.33;70.75;101881.88;5048369;28;20213;-82
2022/08/06 06:40:09;;;;;;;2.50;0.90;;;;;;;15.44;70.14;101886.56;5057872;28;20201;-82
2022/08/06 06:42:41;;;;;;;0.80;0.80;;;;;;;15.56;69.98;101885.81;5059537;28;20696;-82
2022/08/06 06:45:13;;;;;;;1.40;0.90;;;;;;;15.70;69.89;101882.25;5051212;28;20286;-82
2022/08/06 06:47:48;;;;;;;3.90;0.97;;;;;;;15.81;69.63;101883.25;5048104;28;20664;-82
2022/08/06 06:50:19;;;;;;;1.23;0.80;;;;;;;15.95;69.26;101885.88;5052265;28;20547;-82
2022/08/06 06:52:50;;;;;;;1.77;0.80;;;;;;;16.08;68.79;101879.72;5054839;28;20230;-82
2022/08/06 06:55:24;;;;;;;1.30;0.87;;;;;;;16.20;68.22;101885.13;5048564;28;20202;-82
2022/08/06 06:57:53;;;;;;;1.80;0.93;;;;;;;16.34;68.41;101878.78;5049773;28;20203;-82
2022/08/06 07:00:20;;;;;;;0.87;0.70;;;;;;;16.49;68.08;101891.19;5041751;28;20200;-82
2022/08/06 07:02:49;;;;;;;1.67;0.80;;;;;;;16.64;67.59;101887.50;5047900;28;20236;-82
2022/08/06 07:05:16;;;;;;;1.37;0.80;;;;;;;16.76;66.75;101890.31;5050374;28;20737;-82
2022/08/06 07:07:46;;;;;;;3.03;1.30;;;;;;;16.87;66.19;101901.16;5051673;28;20219;-82
2022/08/06 07:10:16;;;;;;;1.03;0.83;;;;;;;17.00;66.24;101902.03;5050181;28;20195;-82
2022/08/06 07:12:45;;;;;;;2.13;0.80;;;;;;;17.13;65.58;101896.66;5049914;28;20227;-82
2022/08/06 07:15:15;;;;;;;2.93;0.87;;;;;;;17.23;65.31;101901.25;5051086;28;20647;-82
2022/08/06 07:17:44;;;;;;;1.27;0.70;;;;;;;17.39;64.85;101908.22;5041030;28;20295;-82
2022/08/06 07:20:13;;;;;;;1.53;0.70;;;;;;;17.51;64.06;101910.06;5054529;28;20637;-82
2022/08/06 07:22:43;;;;;;;1.80;0.87;;;;;;;17.63;63.71;101910.00;5048554;28;20234;-82
2022/08/06 07:25:13;;;;;;;1.40;0.97;;;;;;;17.73;63.02;101907.56;5050012;28;20520;-82
2022/08/06 07:27:44;;;;;;;2.40;0.90;;;;;;;17.83;62.66;101905.03;5050838;28;20312;-82
2022/08/06 07:30:12;;;;;;;2.47;1.10;;;;;;;17.92;62.39;101907.88;5049938;28;20210;-82
2022/08/06 07:32:39;;;;;;;3.40;1.13;;;;;;;18.03;61.85;101915.19;5050767;28;20233;-82
2022/08/06 07:35:07;;;;;;;2.00;0.90;;;;;;;18.14;61.57;101914.38;5047464;28;20210;-82
2022/08/06 07:37:36;;;;;;;3.10;0.90;;;;;;;18.26;61.07;101916.19;5054452;28;20219;-82
2022/08/06 07:40:06;;;;;;;1.43;0.60;;;;;;;18.35;59.86;101920.84;5045917;28;20255;-82
2022/08/06 07:42:35;;;;;;;2.53;0.73;;;;;;;18.45;59.14;101921.88;5049964;28;20229;-82
2022/08/06 07:45:06;;;;;;;1.30;0.50;;;;;;;18.56;58.77;101913.81;5042757;28;20207;-82
2022/08/06 07:47:38;;;;;;;0.80;0.43;;;;;;;18.67;57.64;101924.69;5048120;28;20234;-82
2022/08/06 07:50:06;;;;;;;0.83;0.50;;;;;;;18.79;57.43;101925.59;5049292;28;20212;-82
2022/08/06 07:52:33;;;;;;;0.87;0.50;;;;;;;18.90;56.60;101922.91;5052936;28;20229;-82
2022/08/06 07:55:01;;;;;;;1.67;0.53;;;;;;;19.05;56.01;101931.63;5045604;28;20289;-82
2022/08/06 07:57:28;;;;;;;4.20;0.63;;;;;;;19.18;54.95;101936.91;5046954;28;20290;-82
2022/08/06 07:59:56;;;;;;;3.37;0.70;;;;;;;19.28;54.20;101935.22;5045710;28;20593;-82
2022/08/06 08:02:24;;;;;;;1.27;0.60;;;;;;;19.41;53.79;101933.25;5046560;28;20239;-82
2022/08/06 08:07:36;;;;;;;1.17;0.77;;;;;;;19.66;52.84;101935.72;5049889;28;20206;-82
2022/08/06 08:10:03;;;;;;;1.40;0.57;;;;;;;19.67;52.37;101937.44;5053363;28;20206;-82
2022/08/06 08:12:31;;;;;;;0.30;0.27;;;;;;;19.73;52.74;101933.38;5051863;28;20223;-82
2022/08/06 08:14:59;;;;;;;1.53;0.50;;;;;;;19.87;53.04;101940.38;5049627;28;20207;-82
2022/08/06 08:17:27;;;;;;;0.90;0.40;;;;;;;20.03;52.27;101936.28;5043474;28;20208;-82
2022/08/06 08:19:53;;;;;;;1.13;0.50;;;;;;;20.10;50.52;101940.16;5050660;28;20220;-82
2022/08/06 08:22:21;;;;;;;0.83;0.33;;;;;;;20.06;48.46;101937.88;5049744;28;20227;-82
2022/08/06 08:24:48;;;;;;;1.57;0.50;;;;;;;20.07;49.00;101932.31;5054869;28;20232;-82
2022/08/06 08:27:15;;;;;;;0.60;0.40;;;;;;;20.19;49.73;101943.13;5051030;28;20217;-82
2022/08/06 08:29:43;;;;;;;1.33;0.50;;;;;;;20.35;50.19;101940.84;5047502;28;20207;-82
2022/08/06 08:32:10;;;;;;;1.10;0.40;;;;;;;20.45;50.09;101931.84;5046782;28;20233;-82
2022/08/06 08:34:38;;;;;;;1.60;0.60;;;;;;;20.48;49.59;101938.84;5044001;28;20201;-82
2022/08/06 08:37:05;;;;;;;3.27;0.60;;;;;;;20.43;49.45;101939.22;5046127;28;20686;-82
2022/08/06 08:39:32;;;;;;;1.70;0.50;;;;;;;20.39;49.34;101943.19;5049801;28;20216;-82
2022/08/06 08:42:06;;;;;;;1.60;0.60;;;;;;;20.41;48.95;101935.81;5049762;28;20223;-82
2022/08/06 08:44:34;;;;;;;1.60;0.60;;;;;;;20.48;48.31;101933.44;5051392;28;20223;-82
2022/08/06 08:47:01;;;;;;;1.60;0.50;;;;;;;20.57;48.17;101934.50;5040903;28;20205;-82
2022/08/06 08:49:35;;;;;;;0.53;0.40;;;;;;;20.63;48.21;101940.22;5047403;28;20212;-83
2022/08/06 08:52:04;;;;;;;3.77;0.53;;;;;;;20.71;48.39;101940.44;5046162;28;20224;-82
2022/08/06 08:54:35;;;;;;;1.73;0.50;;;;;;;20.79;47.57;101945.19;5051516;28;20204;-82
2022/08/06 08:57:03;;;;;;;1.70;0.30;;;;;;;20.85;46.77;101944.66;5052365;28;20239;-82
2022/08/06 08:59:31;;;;;;;2.20;0.47;;;;;;;20.96;46.33;101941.88;5053810;28;20250;-83
2022/08/06 09:01:58;;;;;;;2.38;0.40;;;;;;;21.05;45.30;101946.50;5055826;28;20231;-84
2022/08/06 09:04:26;;;;;;;0.83;0.27;;;;;;;21.13;45.04;101944.00;5054122;28;20309;-84
2022/08/06 09:06:53;;;;;;;1.17;0.30;;;;;;;21.25;44.83;101942.09;5057801;28;20222;-83
2022/08/06 09:09:21;;;;;;;1.10;0.30;;;;;;;21.35;43.77;101942.13;5068336;28;20244;-84
2022/08/06 09:11:47;;;;;;;1.10;0.38;;;;;;;21.39;43.50;101939.03;5058439;28;20210;-84
2022/08/06 09:14:14;;;;;;;0.90;0.22;;;;;;;21.46;43.87;101937.50;5046698;28;20204;-84
2022/08/06 09:16:40;;;;;;;1.92;0.32;;;;;;;21.62;43.35;101949.69;5041696;28;20206;-83
2022/08/06 09:19:07;;;;;;;1.52;0.55;;;;;;;21.67;42.85;101942.84;5044566;28;20206;-83
2022/08/06 09:21:34;;;;;;;1.15;0.40;;;;;;;21.67;42.96;101937.44;5050518;28;20212;-83
2022/08/06 09:24:00;;;;;;;1.02;0.35;;;;;;;21.72;43.32;101945.13;5050102;28;20205;-83
2022/08/06 09:26:28;;;;;;;0.93;0.30;;;;;;;21.87;43.63;101945.59;5049889;28;20206;-84
2022/08/06 09:28:55;;;;;;;1.25;0.50;;;;;;;21.99;43.09;101942.66;5039434;28;20230;-84
2022/08/06 09:31:21;;;;;;;2.00;0.32;;;;;;;22.11;42.96;101940.69;5050442;28;20208;-83
2022/08/06 09:33:58;;;;;;;0.43;0.30;;;;;;;22.27;42.90;101937.41;5050336;28;20273;-83
2022/08/06 09:36:25;;;;;;;0.50;0.45;;;;;;;22.38;42.60;101937.31;5047533;28;20984;-84
2022/08/06 09:38:53;;;;;;;2.28;0.35;;;;;;;22.48;42.25;101943.56;5045948;28;20202;-83
2022/08/06 09:41:22;;;;;;;1.60;0.32;;;;;;;22.59;42.04;101939.84;5050153;28;20221;-84
2022/08/06 09:43:52;;;;;;;1.08;0.32;;;;;;;22.69;41.49;101936.13;5049860;28;20240;-84
2022/08/06 09:46:36;;;;;;;0.50;0.22;;;;;;;22.72;40.97;101944.00;5050287;28;20226;-84
2022/08/06 09:49:04;;;;;;;1.55;0.40;;;;;;;22.77;40.59;101938.13;5050300;28;20200;-84
2022/08/06 09:51:34;;;;;;;0.77;0.47;;;;;;;22.83;39.58;101943.00;5045100;28;20680;-83
2022/08/06 09:54:02;;;;;;;0.93;0.40;;;;;;;22.74;39.32;101938.44;5047729;28;20275;-83
2022/08/06 09:56:28;;;;;;;1.13;0.30;;;;;;;22.67;39.76;101946.28;5048380;28;20201;-84
2022/08/06 09:59:00;;;;;;;1.77;0.55;;;;;;;22.76;40.26;101942.69;5050519;28;20237;-84
2022/08/06 10:01:27;;;;;;;1.27;0.40;;;;;;;22.85;40.54;101936.44;5051616;28;20202;-83
2022/08/06 10:03:56;;;;;;;3.10;0.30;;;;;;;22.98;40.30;101938.81;5051181;28;20316;-84
2022/08/06 10:06:25;;;;;;;1.88;0.40;;;;;;;23.07;39.16;101942.53;5045645;28;20213;-83
2022/08/06 10:09:07;;;;;;;1.33;0.40;;;;;;;23.11;39.51;101942.06;5048933;28;20201;-83
2022/08/06 10:11:35;;;;;;;0.63;0.30;;;;;;;23.21;39.47;101939.34;5050598;28;20197;-83
2022/08/06 10:14:03;;;;;;;1.80;0.43;;;;;;;23.32;39.90;101944.59;5051971;28;20240;-84
2022/08/06 10:16:30;;;;;;;0.20;0.20;;;;;;;23.37;39.35;101936.00;5044370;28;20254;-83
2022/08/06 10:18:59;;;;;;;0.70;0.40;;;;;;;23.38;39.20;101938.56;5044865;28;20213;-83
2022/08/06 10:21:28;;;;;;;1.02;0.35;;;;;;;23.46;39.17;101937.84;5048806;28;20201;-83
2022/08/06 10:23:59;;;;;;;1.05;0.50;;;;;;;23.49;38.95;101935.63;5052188;28;20320;-83
2022/08/06 10:26:27;;;;;;;2.28;0.70;;;;;;;23.54;38.73;101941.53;5050391;28;20687;-83
2022/08/06 10:28:55;;;;;;;0.93;0.40;;;;;;;23.58;38.64;101935.78;5045830;28;20212;-83
2022/08/06 10:31:23;;;;;;;0.55;0.30;;;;;;;23.59;38.64;101937.50;5047687;28;20198;-83
2022/08/06 10:33:52;;;;;;;0.60;0.30;;;;;;;23.58;38.20;101933.06;5046004;28;20237;-83
2022/08/06 10:36:23;;;;;;;1.05;0.30;;;;;;;23.57;38.07;101931.34;5042016;28;20680;-83
2022/08/06 10:38:53;;;;;;;0.88;0.50;;;;;;;23.52;37.91;101935.38;5047068;28;20231;-83
2022/08/06 10:41:20;;;;;;;0.70;0.30;;;;;;;23.49;37.83;101934.78;5044888;28;20205;-83
2022/08/06 10:43:48;;;;;;;2.33;0.45;;;;;;;23.48;37.40;101933.06;5047852;28;20223;-83
2022/08/06 10:46:16;;;;;;;0.93;0.40;;;;;;;23.50;37.50;101939.22;5046040;28;20294;-83
2022/08/06 10:48:46;;;;;;;0.80;0.30;;;;;;;23.55;37.61;101931.50;5047695;28;20205;-83
2022/08/06 10:51:13;;;;;;;1.88;0.40;;;;;;;23.66;37.74;101936.72;5043349;28;20219;-83
2022/08/06 10:53:42;;;;;;;0.95;0.50;;;;;;;23.75;36.56;101929.53;5045721;28;20221;-83
2022/08/06 10:56:11;;;;;;;0.20;0.20;;;;;;;23.79;36.74;101928.25;5049459;28;20288;-84
2022/08/06 10:58:39;;;;;;;1.08;0.50;;;;;;;23.78;36.53;101934.69;5045114;28;20209;-83
2022/08/06 11:01:08;;;;;;;1.65;0.40;;;;;;;23.74;36.61;101933.28;5053267;28;20200;-83
2022/08/06 11:03:45;;;;;;;0.60;0.40;;;;;;;23.71;36.80;101930.84;5044953;28;20588;-84
2022/08/06 11:06:31;;;;;;;0.45;0.30;;;;;;;23.70;36.51;101930.00;5049334;28;20205;-83
2022/08/06 11:09:11;;;;;;;2.15;0.40;;;;;;;23.77;37.00;101932.97;5048333;28;20283;-84
2022/08/06 11:11:48;;;;;;;1.27;0.30;;;;;;;23.80;36.44;101927.25;5045420;28;20213;-83
2022/08/06 11:14:16;;;;;;;1.45;0.40;;;;;;;23.89;36.70;101918.13;5046134;28;20213;-85
2022/08/06 11:16:55;;;;;;;2.65;0.55;;;;;;;23.93;35.89;101921.41;5045124;28;20231;-85
2022/08/06 11:19:39;;;;;;;0.50;0.40;;;;;;;23.90;36.25;101928.03;5047493;28;20201;-85
2022/08/06 11:22:08;;;;;;;0.77;0.30;;;;;;;23.87;36.00;101920.16;5038808;28;20314;-84
2022/08/06 11:24:50;;;;;;;0.88;0.32;;;;;;;23.85;36.05;101922.16;5047380;28;20212;-84
2022/08/06 11:27:56;;;;;;;1.05;0.40;;;;;;;23.88;36.00;101927.31;5050496;28;20202;-84
2022/08/06 11:30:37;;;;;;;1.05;0.30;;;;;;;23.91;36.54;101918.84;4992880;28;20203;-86
2022/08/06 11:33:04;;;;;;;0.50;0.30;;;;;;;23.91;36.37;101921.56;5039693;28;20229;-86
2022/08/06 11:35:45;;;;;;;1.70;0.40;;;;;;;23.99;36.35;101915.38;5048063;28;20221;-85
2022/08/06 11:38:15;;;;;;;1.27;0.20;;;;;;;24.04;35.74;101913.88;5040315;28;20208;-86